Time;durP1;ratioP1;P1;durP2;ratioP2;P2;SDS_P1;SDS_P2;PMS_P1;PMS_P2;Temp;Humidity;BMP_temperature;BMP_pressure;BME280_temperature;BME280_humidity;BME280_pressure;Samples;Min_cycle;Max_cycle;Signal;HPM_P1;HPM_P2
2021/04/12 04:53:41;;;;;;;39.73;21.50;;;;;;;7.65;52.31;101082.98;1843410;77;22762;-64
2021/04/12 04:56:57;;;;;;;29.65;20.05;;;;;;;7.67;52.33;101082.50;1812719;79;21015;-59
2021/04/12 04:59:49;;;;;;;29.85;20.55;;;;;;;7.76;52.29;101083.99;1812437;78;20928;-58
2021/04/12 05:03:01;;;;;;;28.38;19.62;;;;;;;7.88;52.23;101083.66;1811721;78;20952;-58
2021/04/12 05:06:07;;;;;;;28.38;19.75;;;;;;;8.01;52.20;101075.91;1779236;80;20992;-61
2021/04/12 05:08:54;;;;;;;29.80;20.55;;;;;;;8.17;52.23;101070.28;1809227;78;20996;-59
2021/04/12 05:11:51;;;;;;;32.93;21.33;;;;;;;8.37;52.05;101069.73;1750400;78;21536;-60
2021/04/12 05:14:55;;;;;;;33.13;22.82;;;;;;;8.57;51.83;101064.75;1795795;79;21138;-71
2021/04/12 05:18:05;;;;;;;29.20;20.60;;;;;;;8.84;51.60;101058.66;1797328;78;21803;-60
2021/04/12 05:20:56;;;;;;;30.23;21.10;;;;;;;9.14;51.12;101053.37;1794237;79;20980;-74
2021/04/12 05:23:52;;;;;;;31.17;22.67;;;;;;;9.36;50.85;101050.41;1795769;79;20976;-64
2021/04/12 05:26:57;;;;;;;33.18;22.27;;;;;;;9.63;50.39;101045.97;1793782;77;22985;-69
2021/04/12 05:29:49;;;;;;;36.05;23.60;;;;;;;9.81;50.45;101044.47;1740642;80;21020;-71
2021/04/12 05:33:01;;;;;;;28.85;19.95;;;;;;;10.12;49.39;101037.65;1760716;80;21043;-66
2021/04/12 05:36:05;;;;;;;29.50;21.17;;;;;;;10.33;48.62;101031.66;1808234;78;21565;-67
2021/04/12 05:38:51;;;;;;;27.35;20.72;;;;;;;10.56;48.13;101043.30;1830092;77;20964;-75
2021/04/12 05:41:41;;;;;;;31.12;22.07;;;;;;;10.86;47.18;101033.84;1831078;77;21060;-71
2021/04/12 05:44:48;;;;;;;32.70;20.70;;;;;;;11.06;46.81;101036.48;1809016;78;21056;-65
2021/04/12 05:47:42;;;;;;;31.17;20.75;;;;;;;11.28;46.63;101029.87;1792723;78;21396;-63
2021/04/12 05:50:40;;;;;;;34.35;22.20;;;;;;;11.53;46.34;101037.49;1813047;78;21567;-67
2021/04/12 05:53:21;;;;;;;;;;;;;;;11.76;46.26;101036.00;1833166;77;21079;-66
2021/04/12 05:56:11;;;;;;;28.67;20.95;;;;;;;12.05;45.72;101031.23;1829997;77;20150;-66
2021/04/12 05:59:18;;;;;;;28.15;21.20;;;;;;;12.34;45.46;101036.80;1811994;78;21148;-67
2021/04/12 06:01:59;;;;;;;28.42;19.20;;;;;;;12.65;45.10;101024.86;1813231;78;21862;-69
2021/04/12 06:05:21;;;;;;;25.57;19.12;;;;;;;12.98;43.71;101027.56;1793448;77;22225;-72
2021/04/12 06:12:56;;;;;;;24.18;16.93;;;;;;;13.19;42.82;101024.38;1796903;78;21649;-63
2021/04/12 06:15:54;;;;;;;21.40;17.55;;;;;;;13.44;42.62;101021.32;1731457;82;21082;-63
2021/04/12 06:23:23;;;;;;;24.80;16.75;;;;;;;13.73;41.04;101014.53;1809555;77;21625;-62
2021/04/12 06:26:10;;;;;;;;;;;;;;;13.88;39.47;101011.95;1822237;78;21206;-61
2021/04/12 06:29:05;;;;;;;22.85;15.95;;;;;;;13.89;39.17;101009.71;1819347;78;20998;-67
2021/04/12 06:32:09;;;;;;;24.27;16.70;;;;;;;13.90;39.65;101013.17;1809685;78;21009;-72
2021/04/12 06:35:17;;;;;;;26.90;17.92;;;;;;;13.92;37.76;101013.94;1827302;78;20946;-62
2021/04/12 06:38:26;;;;;;;24.18;18.70;;;;;;;13.77;37.98;101031.30;1814938;78;20997;-59
2021/04/12 06:41:32;;;;;;;27.77;18.35;;;;;;;13.54;38.09;101019.92;1814733;78;21387;-59
2021/04/12 06:44:25;;;;;;;22.87;16.05;;;;;;;13.39;38.34;101015.48;1821554;77;21057;-60
2021/04/12 06:47:39;;;;;;;24.70;16.25;;;;;;;13.38;38.91;101005.48;1832361;77;20938;-60
2021/04/12 06:51:04;;;;;;;19.50;15.15;;;;;;;13.40;38.67;101002.78;1849582;77;20915;-67
2021/04/12 06:54:24;;;;;;;19.95;14.78;;;;;;;13.41;38.64;100994.01;1774463;78;20909;-74
2021/04/12 06:58:09;;;;;;;25.82;15.60;;;;;;;13.49;38.71;100987.91;1773359;78;21409;-63
2021/04/12 07:01:25;;;;;;;20.85;14.90;;;;;;;13.59;38.52;100976.04;1830137;77;20990;-65
2021/04/12 07:04:24;;;;;;;26.95;14.90;;;;;;;13.64;38.11;100970.91;1833593;77;20997;-71
2021/04/12 07:07:10;;;;;;;24.23;16.30;;;;;;;13.67;38.61;100966.82;1828351;77;21010;-70
2021/04/12 07:10:19;;;;;;;22.20;15.28;;;;;;;13.74;39.44;100969.11;1832278;77;21001;-65
2021/04/12 07:13:05;;;;;;;20.32;14.60;;;;;;;13.82;38.86;100965.62;1820577;77;21433;-68
2021/04/12 07:15:59;;;;;;;;;;;;;;;13.95;37.96;100959.63;1791037;78;20962;-68
2021/04/12 07:19:24;;;;;;;24.85;15.48;;;;;;;14.03;37.76;100961.80;1808358;77;20135;-67
2021/04/12 07:22:20;;;;;;;22.80;14.68;;;;;;;14.02;37.62;100954.87;1826217;77;21554;-69
2021/04/12 07:25:43;;;;;;;21.15;14.07;;;;;;;14.06;36.93;100942.45;1814205;77;20962;-67
2021/04/12 07:28:49;;;;;;;21.90;14.20;;;;;;;14.04;36.87;100941.23;1828041;77;22157;-72
2021/04/12 07:32:05;;;;;;;20.50;14.05;;;;;;;14.00;36.80;100931.39;1834328;77;21018;-71
2021/04/12 07:35:18;;;;;;;20.15;13.83;;;;;;;13.95;37.12;100933.91;1817975;77;21583;-71
2021/04/12 07:38:11;;;;;;;19.92;13.88;;;;;;;13.84;37.10;100937.12;1841064;77;22034;-71
2021/04/12 07:41:11;;;;;;;28.83;18.45;;;;;;;13.74;37.18;100934.62;1829246;77;21571;-69
2021/04/12 07:44:10;;;;;;;24.75;17.00;;;;;;;13.59;37.45;100932.40;1828072;77;22096;-74
2021/04/12 07:47:12;;;;;;;22.60;15.30;;;;;;;13.39;37.95;100927.38;1806731;77;20964;-73
2021/04/12 07:50:34;;;;;;;27.27;15.53;;;;;;;13.25;38.02;100924.64;1705796;82;21620;-68
2021/04/12 07:53:17;;;;;;;23.47;14.78;;;;;;;13.10;38.49;100926.75;1775282;79;21562;-70
2021/04/12 07:55:56;;;;;;;25.85;16.90;;;;;;;12.92;38.83;100918.08;1786050;78;21585;-68
2021/04/12 07:58:45;;;;;;;21.90;16.15;;;;;;;12.85;39.75;100914.08;1843367;77;21485;-73
2021/04/12 08:01:48;;;;;;;25.15;17.12;;;;;;;12.80;40.41;100920.00;1820317;78;21655;-66
2021/04/12 08:04:40;;;;;;;20.82;14.40;;;;;;;12.84;40.71;100924.16;1842577;76;21554;-66
2021/04/12 08:07:55;;;;;;;25.55;16.40;;;;;;;12.93;40.61;100925.00;1851583;76;21544;-74
2021/04/12 08:11:11;;;;;;;20.68;14.87;;;;;;;13.03;40.62;100919.22;1836549;77;21558;-62
2021/04/12 08:14:11;;;;;;;21.10;15.40;;;;;;;13.10;40.65;100919.75;1847224;77;21181;-64
2021/04/12 08:17:32;;;;;;;22.87;15.58;;;;;;;13.11;40.47;100907.52;1843552;77;21070;-62
2021/04/12 08:20:52;;;;;;;19.05;12.78;;;;;;;13.15;40.18;100905.97;1815251;78;21041;-63
2021/04/12 08:23:50;;;;;;;16.52;11.78;;;;;;;13.20;40.11;100914.42;1815417;77;21712;-68
2021/04/12 08:26:56;;;;;;;20.60;11.90;;;;;;;13.26;39.71;100915.87;1813462;77;21476;-64
2021/04/12 08:30:15;;;;;;;22.22;13.43;;;;;;;13.30;39.43;100905.63;1805902;78;21932;-69
2021/04/12 08:33:41;;;;;;;16.73;11.57;;;;;;;13.34;39.56;100907.16;1837746;77;21538;-63
2021/04/12 08:36:38;;;;;;;18.90;11.57;;;;;;;13.48;39.46;100916.89;1832560;77;20894;-63
2021/04/12 08:39:31;;;;;;;17.15;11.30;;;;;;;13.56;39.22;100921.25;1807032;77;21626;-63
2021/04/12 08:42:25;;;;;;;20.65;12.53;;;;;;;13.58;38.83;100916.77;1814840;78;20910;-68
2021/04/12 08:45:33;;;;;;;16.55;12.13;;;;;;;13.59;38.47;100904.07;1843668;77;21192;-68
2021/04/12 08:48:07;;;;;;;22.13;14.73;;;;;;;13.62;39.04;100894.72;1815614;78;21802;-64
2021/04/12 08:51:33;;;;;;;18.25;13.83;;;;;;;13.66;39.27;100880.07;1809985;78;21353;-74
2021/04/12 08:54:11;;;;;;;19.30;11.88;;;;;;;13.69;39.59;100888.22;1800149;77;21586;-67
2021/04/12 08:57:01;;;;;;;20.88;12.37;;;;;;;13.74;39.06;100895.36;1852472;77;21523;-71
2021/04/12 09:00:20;;;;;;;29.87;16.90;;;;;;;13.73;38.99;100866.65;1827170;77;22235;-75
2021/04/12 09:03:24;;;;;;;44.90;25.68;;;;;;;13.73;39.38;100854.41;1806088;78;21551;-66
2021/04/12 09:06:04;;;;;;;17.98;12.20;;;;;;;13.69;39.35;100857.66;1819095;78;21434;-65
2021/04/12 09:09:01;;;;;;;14.07;8.33;;;;;;;13.69;40.21;100864.20;1824431;76;22189;-70
2021/04/12 09:12:09;;;;;;;12.07;8.58;;;;;;;13.73;40.74;100867.49;1845607;77;22251;-72
2021/04/12 09:15:13;;;;;;;10.70;8.10;;;;;;;13.75;41.38;100856.47;1841587;77;21619;-73
2021/04/12 09:18:27;;;;;;;11.05;8.35;;;;;;;13.70;41.36;100851.95;1839768;77;21823;-67
2021/04/12 09:21:36;;;;;;;16.48;9.43;;;;;;;13.63;41.39;100863.23;1829325;77;21639;-67
2021/04/12 09:24:53;;;;;;;14.40;10.03;;;;;;;13.57;42.12;100883.69;1825605;77;21086;-69
2021/04/12 09:27:52;;;;;;;15.93;10.23;;;;;;;13.50;42.75;100888.87;1796256;79;21679;-71
2021/04/12 09:30:52;;;;;;;15.65;8.55;;;;;;;13.41;42.62;100884.13;1804853;79;21783;-73
2021/04/12 09:33:44;;;;;;;13.13;8.73;;;;;;;13.38;42.46;100889.06;1854546;76;20926;-74
2021/04/12 09:37:06;;;;;;;11.53;9.30;;;;;;;13.32;42.68;100886.31;1843986;76;21534;-60
2021/04/12 09:39:57;;;;;;;12.82;8.65;;;;;;;13.29;43.12;100869.47;1844877;77;21432;-68
2021/04/12 09:42:58;;;;;;;11.68;8.58;;;;;;;13.21;43.59;100862.50;1846563;77;21610;-76
2021/04/12 09:45:56;;;;;;;14.03;8.45;;;;;;;13.15;43.86;100873.74;1821410;78;21176;-73
2021/04/12 09:48:59;;;;;;;11.65;8.23;;;;;;;13.07;43.64;100863.69;1819186;77;21005;-68
2021/04/12 09:51:45;;;;;;;10.50;8.10;;;;;;;13.02;44.14;100842.17;1845691;77;21053;-71
2021/04/12 09:55:05;;;;;;;15.98;8.70;;;;;;;12.99;44.37;100813.57;1842751;77;20976;-72
2021/04/12 09:57:56;;;;;;;13.05;8.88;;;;;;;12.97;44.71;100777.52;1819626;78;20930;-68
2021/04/12 10:00:40;;;;;;;11.50;8.30;;;;;;;12.95;46.72;100805.05;1816019;78;21354;-63
2021/04/12 10:03:28;;;;;;;10.98;8.70;;;;;;;12.85;49.73;100838.28;1824441;77;21058;-67
2021/04/12 10:06:24;;;;;;;11.12;8.63;;;;;;;12.68;50.83;100847.03;1804658;78;21261;-65
2021/04/12 10:09:38;;;;;;;13.62;9.05;;;;;;;12.50;52.09;100848.80;1835386;77;21040;-69
2021/04/12 10:12:41;;;;;;;13.65;10.05;;;;;;;12.32;52.18;100858.89;1808467;78;21504;-73
2021/04/12 10:15:23;;;;;;;15.50;11.08;;;;;;;12.14;52.06;100853.27;1841814;77;21181;-65
2021/04/12 10:18:25;;;;;;;16.10;11.38;;;;;;;12.05;52.58;100844.58;1810167;78;21635;-70
2021/04/12 10:21:33;;;;;;;19.42;12.18;;;;;;;11.99;52.77;100844.45;1786221;77;21563;-66
2021/04/12 10:24:27;;;;;;;19.15;13.72;;;;;;;11.93;52.12;100812.97;1788856;78;21611;-65
2021/04/12 10:27:12;;;;;;;23.55;13.78;;;;;;;11.93;52.12;100812.97;1802419;78;21363;-59
2021/04/12 10:30:13;;;;;;;18.57;11.60;;;;;;;11.95;51.80;100793.31;1830679;77;21543;-60
2021/04/12 10:32:52;;;;;;;16.95;11.55;;;;;;;11.93;51.63;100767.30;1810979;77;21607;-72
2021/04/12 10:35:47;;;;;;;16.87;11.88;;;;;;;11.90;53.65;100770.05;1804242;77;21611;-73
2021/04/12 10:38:32;;;;;;;15.70;10.38;;;;;;;11.83;55.46;100768.66;1824927;77;21017;-69
2021/04/12 10:41:34;;;;;;;22.37;13.25;;;;;;;11.76;55.84;100758.11;1804928;77;21102;-71
2021/04/12 10:44:36;;;;;;;20.40;12.53;;;;;;;11.68;57.78;100732.85;1727203;77;21213;-67
2021/04/12 10:47:51;;;;;;;20.97;12.93;;;;;;;11.54;58.24;100697.04;1729558;81;21683;-68
2021/04/12 10:50:42;;;;;;;18.25;13.40;;;;;;;11.36;60.34;100760.05;1794136;77;21029;-61
2021/04/12 10:53:44;;;;;;;24.60;13.55;;;;;;;11.21;61.04;100806.84;1789871;78;21037;-68
2021/04/12 10:56:43;;;;;;;14.45;11.33;;;;;;;11.09;61.96;100792.64;1747743;77;21565;-69
2021/04/12 10:59:54;;;;;;;24.10;14.80;;;;;;;11.02;62.53;100815.53;1817918;77;22045;-68
2021/04/12 11:02:53;;;;;;;31.35;19.12;;;;;;;10.96;62.22;100815.80;1799469;78;21523;-64
2021/04/12 11:05:26;;;;;;;38.65;22.13;;;;;;;10.91;62.65;100819.53;1834963;77;21610;-67
2021/04/12 11:08:12;;;;;;;26.33;16.20;;;;;;;10.88;62.06;100817.91;1835623;77;21043;-70
2021/04/12 11:11:10;;;;;;;36.28;21.73;;;;;;;10.90;62.19;100821.74;1775902;77;22236;-68
2021/04/12 11:14:29;;;;;;;46.02;26.57;;;;;;;10.94;62.69;100785.52;1808449;78;21466;-64
2021/04/12 11:17:45;;;;;;;25.95;15.55;;;;;;;11.11;62.26;100753.48;1883571;74;22691;-62
2021/04/12 11:20:24;;;;;;;18.57;12.85;;;;;;;11.13;61.45;100765.98;1867710;76;21137;-66
2021/04/12 11:23:06;;;;;;;16.77;10.75;;;;;;;11.19;61.77;100750.91;1787420;79;21588;-68
2021/04/12 11:25:42;;;;;;;22.27;13.40;;;;;;;11.28;61.58;100750.90;1792716;79;21083;-62
2021/04/12 11:28:44;;;;;;;29.92;19.23;;;;;;;11.33;60.74;100775.84;1800094;79;21447;-70
2021/04/12 11:31:44;;;;;;;29.80;20.77;;;;;;;11.47;59.79;100754.79;1870947;76;22680;-64
2021/04/12 11:34:40;;;;;;;23.50;16.37;;;;;;;11.49;60.47;100756.41;1836224;77;21011;-69
2021/04/12 11:37:38;;;;;;;41.88;26.95;;;;;;;11.61;59.37;100757.55;1791503;78;21363;-69
2021/04/12 11:40:20;;;;;;;32.42;21.60;;;;;;;11.75;59.65;100783.81;1798821;79;21499;-69
2021/04/12 11:42:58;;;;;;;26.55;17.00;;;;;;;11.86;58.45;100767.67;1794025;79;21034;-70
2021/04/12 11:45:50;;;;;;;22.58;16.02;;;;;;;11.94;56.88;100755.09;1787853;78;21595;-64
2021/04/12 11:48:47;;;;;;;21.17;13.15;;;;;;;11.98;57.36;100751.41;1759996;80;20970;-70
2021/04/12 11:52:13;;;;;;;14.95;10.68;;;;;;;12.07;57.04;100728.73;1778375;80;21351;-58
2021/04/12 11:55:18;;;;;;;17.75;11.73;;;;;;;12.18;56.63;100738.17;1795486;79;21630;-64
2021/04/12 11:58:22;;;;;;;18.00;12.18;;;;;;;12.29;56.25;100750.67;1764444;80;21590;-59
2021/04/12 12:01:20;;;;;;;20.35;10.98;;;;;;;12.34;55.70;100732.55;1761984;80;22304;-64
2021/04/12 12:04:18;;;;;;;16.45;10.10;;;;;;;12.40;55.87;100729.20;1781139;80;21045;-70
2021/04/12 12:07:10;;;;;;;20.77;11.50;;;;;;;12.43;56.07;100717.28;1773759;79;21236;-62
2021/04/12 12:09:54;;;;;;;22.55;11.83;;;;;;;12.41;56.36;100687.80;1782968;79;21378;-70
2021/04/12 12:12:37;;;;;;;17.05;11.20;;;;;;;12.39;56.70;100673.54;1785000;79;21597;-72
2021/04/12 12:15:40;;;;;;;18.92;11.63;;;;;;;12.37;56.76;100698.05;1776693;79;20945;-69
2021/04/12 12:18:20;;;;;;;28.92;16.00;;;;;;;12.37;56.80;100706.73;1777949;79;21005;-62
2021/04/12 12:21:10;;;;;;;40.70;22.93;;;;;;;12.42;56.83;100696.01;1773388;79;22084;-67
2021/04/12 12:24:09;;;;;;;41.23;25.23;;;;;;;12.48;56.62;100696.99;1774883;79;21049;-64
2021/04/12 12:27:04;;;;;;;24.57;14.58;;;;;;;12.57;57.03;100676.45;1778388;79;21028;-67
2021/04/12 12:29:44;;;;;;;22.10;13.70;;;;;;;12.67;56.56;100675.03;1772983;79;21614;-76
2021/04/12 12:32:40;;;;;;;23.92;12.95;;;;;;;12.78;56.70;100665.30;1777399;79;21576;-68
2021/04/12 12:35:25;;;;;;;24.98;15.85;;;;;;;12.88;56.07;100662.53;1788950;79;21607;-67
2021/04/12 12:38:18;;;;;;;24.57;16.27;;;;;;;12.93;55.00;100680.58;1745667;81;21618;-73
2021/04/12 12:40:53;;;;;;;23.52;14.05;;;;;;;12.92;54.97;100679.73;1765496;80;21618;-72
2021/04/12 12:43:34;;;;;;;25.50;15.28;;;;;;;12.95;55.30;100686.10;1780488;79;21149;-65
2021/04/12 12:46:25;;;;;;;28.07;16.12;;;;;;;12.97;55.39;100695.17;1781337;79;21622;-67
2021/04/12 12:49:02;;;;;;;24.32;13.93;;;;;;;12.98;55.69;100686.40;1769146;81;21616;-61
2021/04/12 12:51:50;;;;;;;23.77;12.55;;;;;;;13.05;55.19;100690.36;1761934;80;21594;-67
2021/04/12 12:54:31;;;;;;;22.25;14.43;;;;;;;13.13;55.09;100700.40;1741431;80;21512;-67
2021/04/12 12:57:20;;;;;;;21.17;13.93;;;;;;;13.21;55.19;100703.43;1763169;80;21128;-67
2021/04/12 13:00:18;;;;;;;25.08;15.63;;;;;;;13.34;54.71;100687.43;1794768;77;22742;-70
2021/04/12 13:02:46;;;;;;;22.17;12.33;;;;;;;13.33;54.79;100680.05;1771612;80;20925;-70
2021/04/12 13:05:31;;;;;;;18.40;11.63;;;;;;;13.39;54.84;100685.40;1766282;81;22847;-69
2021/04/12 13:08:15;;;;;;;20.23;13.00;;;;;;;13.45;54.66;100678.51;1783159;79;21015;-71
2021/04/12 13:10:45;;;;;;;17.75;11.53;;;;;;;13.47;53.83;100669.27;1788561;79;21467;-68
2021/04/12 13:13:25;;;;;;;18.98;12.00;;;;;;;13.45;54.09;100652.34;1784951;79;21007;-71
2021/04/12 13:15:55;;;;;;;18.57;12.82;;;;;;;13.45;54.31;100662.81;1788207;79;21600;-64
2021/04/12 13:18:29;;;;;;;19.48;12.60;;;;;;;13.48;53.59;100673.56;1781439;79;22629;-68
2021/04/12 13:21:12;;;;;;;20.43;12.15;;;;;;;13.46;54.03;100663.19;1782465;79;21651;-70
2021/04/12 13:23:49;;;;;;;15.90;11.73;;;;;;;13.51;53.82;100666.39;1790214;78;21665;-68
2021/04/12 13:27:00;;;;;;;15.28;9.83;;;;;;;13.53;53.60;100667.61;1805281;78;21566;-67
2021/04/12 13:29:44;;;;;;;15.40;10.95;;;;;;;13.55;53.74;100665.74;1748818;81;21039;-69
2021/04/12 13:32:16;;;;;;;23.67;12.95;;;;;;;13.58;54.01;100656.41;1739088;81;21770;-71
2021/04/12 13:35:17;;;;;;;14.85;10.43;;;;;;;13.60;54.03;100666.29;1722000;81;21079;-69
2021/04/12 13:37:51;;;;;;;14.43;10.60;;;;;;;13.59;53.63;100670.71;1752068;81;21068;-67
2021/04/12 13:40:34;;;;;;;22.45;13.50;;;;;;;13.56;53.75;100673.97;1722601;81;20969;-68
2021/04/12 13:43:07;;;;;;;28.12;14.43;;;;;;;13.51;53.96;100677.31;1727482;81;21032;-70
2021/04/12 13:45:38;;;;;;;20.17;11.75;;;;;;;13.46;54.37;100669.73;1714208;82;21369;-70
2021/04/12 13:48:15;;;;;;;15.08;10.82;;;;;;;13.49;54.56;100675.25;1738425;81;21076;-68
2021/04/12 13:51:19;;;;;;;17.05;10.50;;;;;;;13.49;54.45;100668.71;1714129;82;21068;-69
2021/04/12 13:54:01;;;;;;;18.42;11.65;;;;;;;13.46;54.93;100666.27;1692785;82;21563;-63
2021/04/12 13:56:44;;;;;;;17.62;11.12;;;;;;;13.45;55.11;100670.66;1739642;81;22180;-64
2021/04/12 13:59:32;;;;;;;20.32;11.65;;;;;;;13.46;55.35;100668.42;1745051;81;21612;-61
2021/04/12 14:02:27;;;;;;;20.68;11.90;;;;;;;13.45;55.46;100670.66;1753638;81;20969;-63
2021/04/12 14:05:03;;;;;;;19.45;12.30;;;;;;;13.43;55.69;100680.38;1732917;81;21655;-61
2021/04/12 14:07:50;;;;;;;19.23;12.90;;;;;;;13.39;55.95;100667.55;1771473;80;21060;-66
2021/04/12 14:10:36;;;;;;;23.02;12.85;;;;;;;13.35;56.19;100672.95;1762260;80;21232;-68
2021/04/12 14:13:19;;;;;;;20.15;11.57;;;;;;;13.37;56.25;100686.41;1762116;81;24695;-71
2021/04/12 14:16:20;;;;;;;28.75;13.72;;;;;;;13.39;55.93;100699.78;1762219;81;21511;-60
2021/04/12 14:19:12;;;;;;;24.90;15.60;;;;;;;13.39;56.31;100701.56;1761448;80;21491;-60
2021/04/12 14:21:47;;;;;;;28.25;16.62;;;;;;;13.39;56.63;100693.71;1762125;81;21484;-60
2021/04/12 14:24:29;;;;;;;26.23;15.15;;;;;;;13.38;56.18;100698.56;1762383;80;21007;-59
